< < Back
Terminal Aerodrome Forecast


Current Version              Previous Versions:   1  2  3  4  5  6  7  8  9  

Terminal Aerodrome Forecast

402
FTUS42 KCHS 181600 AAA
TAFSAV
TAF AMD
KSAV 181628Z 1816/1912 VRB03KT P6SM BKN250
      TEMPO 1816/1818 6SM FU FEW008=

Latest METAR

377
SAUS80 KWBC 181700 CCA
MTRSAV
METAR KSAV 181653Z 33005KT 10SM FEW150 BKN180 13/04 A3015 RMK AO2 SLP210
T01330039 $


USA.gov is the U.S. government's official web portal to all federal, state and local government web resources and services.